Terminal Aerodrome Forecast
Issued by NWS

Home | Current Version | Previous Version | Text Only | Print | Product List | Glossary On
Versions: 1 2 3 4 5 6 7 8 9 10 11 12 13 14 15 16 17 18 19 20 21
000
FTUS44 KLIX 211733
TAFGPT
TAF
KGPT 211733Z 2118/2218 27007KT P6SM BKN015 OVC040
     FM212100 22006KT P6SM VCTS BKN025CB BKN060
     FM220000 21004KT P6SM BKN080
     FM220800 33004KT 5SM BR SCT090
      TEMPO 2211/2213 2SM BR SCT015
     FM221600 36007KT P6SM BKN035=

USA.gov is the U.S. government's official web portal to all federal, state and local government web resources and services.